sensor_id;sensor_type;location;lat;lon;timestamp;pressure;altitude;pressure_sealevel;temperature;humidity
59825;BME280;45703;50.898;6.054;2023-05-20T00:00:47;100785.34;;;13.15;62.52
59825;BME280;45703;50.898;6.054;2023-05-20T00:03:14;100777.97;;;13.10;63.30
59825;BME280;45703;50.898;6.054;2023-05-20T00:05:39;100776.19;;;13.04;63.09
59825;BME280;45703;50.898;6.054;2023-05-20T00:08:05;100772.75;;;12.98;63.99
59825;BME280;45703;50.898;6.054;2023-05-20T00:10:36;100771.13;;;12.97;64.21
59825;BME280;45703;50.898;6.054;2023-05-20T00:13:02;100772.19;;;12.89;64.14
59825;BME280;45703;50.898;6.054;2023-05-20T00:15:28;100781.06;;;12.90;64.32
59825;BME280;45703;50.898;6.054;2023-05-20T00:17:54;100778.25;;;12.85;64.62
59825;BME280;45703;50.898;6.054;2023-05-20T00:20:19;100770.06;;;12.80;64.58
59825;BME280;45703;50.898;6.054;2023-05-20T00:22:45;100768.88;;;12.76;64.96
59825;BME280;45703;50.898;6.054;2023-05-20T00:25:10;100782.91;;;12.71;65.40
59825;BME280;45703;50.898;6.054;2023-05-20T00:27:39;100771.91;;;12.61;65.47
59825;BME280;45703;50.898;6.054;2023-05-20T00:30:05;100773.59;;;12.56;66.10
59825;BME280;45703;50.898;6.054;2023-05-20T00:32:30;100785.56;;;12.53;65.65
59825;BME280;45703;50.898;6.054;2023-05-20T00:34:59;100778.63;;;12.46;65.98
59825;BME280;45703;50.898;6.054;2023-05-20T00:37:25;100781.97;;;12.41;66.07
59825;BME280;45703;50.898;6.054;2023-05-20T00:39:51;100776.59;;;12.41;65.11
59825;BME280;45703;50.898;6.054;2023-05-20T00:42:24;100780.31;;;12.40;66.14
59825;BME280;45703;50.898;6.054;2023-05-20T00:44:50;100781.78;;;12.36;65.86
59825;BME280;45703;50.898;6.054;2023-05-20T00:47:16;100780.75;;;12.37;65.61
59825;BME280;45703;50.898;6.054;2023-05-20T00:49:43;100772.56;;;12.32;65.11
59825;BME280;45703;50.898;6.054;2023-05-20T00:52:09;100772.41;;;12.27;66.30
59825;BME280;45703;50.898;6.054;2023-05-20T00:54:35;100762.13;;;12.24;66.02
59825;BME280;45703;50.898;6.054;2023-05-20T00:57:01;100772.25;;;12.22;66.62
59825;BME280;45703;50.898;6.054;2023-05-20T00:59:27;100771.06;;;12.18;66.34
59825;BME280;45703;50.898;6.054;2023-05-20T01:01:53;100782.19;;;12.15;67.06
59825;BME280;45703;50.898;6.054;2023-05-20T01:04:19;100769.44;;;12.11;66.99
59825;BME280;45703;50.898;6.054;2023-05-20T01:06:44;100767.66;;;12.05;67.82
59825;BME280;45703;50.898;6.054;2023-05-20T01:09:10;100771.97;;;12.06;66.92
59825;BME280;45703;50.898;6.054;2023-05-20T01:11:43;100770.31;;;12.05;65.62
59825;BME280;45703;50.898;6.054;2023-05-20T01:14:14;100763.94;;;12.06;66.21
59825;BME280;45703;50.898;6.054;2023-05-20T01:16:43;100767.44;;;12.06;68.37
59825;BME280;45703;50.898;6.054;2023-05-20T01:19:21;100760.69;;;11.97;66.58
59825;BME280;45703;50.898;6.054;2023-05-20T01:21:52;100761.72;;;11.96;66.81
59825;BME280;45703;50.898;6.054;2023-05-20T01:24:18;100772.03;;;11.99;67.48
59825;BME280;45703;50.898;6.054;2023-05-20T01:26:44;100766.47;;;11.94;67.56
59825;BME280;45703;50.898;6.054;2023-05-20T01:29:12;100764.91;;;11.87;67.96
59825;BME280;45703;50.898;6.054;2023-05-20T01:31:42;100756.47;;;11.83;68.83
59825;BME280;45703;50.898;6.054;2023-05-20T01:34:10;100759.16;;;11.83;68.25
59825;BME280;45703;50.898;6.054;2023-05-20T01:36:37;100763.91;;;11.81;67.68
59825;BME280;45703;50.898;6.054;2023-05-20T01:39:04;100760.88;;;11.78;69.69
59825;BME280;45703;50.898;6.054;2023-05-20T01:41:30;100749.16;;;11.72;69.33
59825;BME280;45703;50.898;6.054;2023-05-20T01:43:58;100755.94;;;11.75;67.69
59825;BME280;45703;50.898;6.054;2023-05-20T01:46:24;100759.44;;;11.75;67.89
59825;BME280;45703;50.898;6.054;2023-05-20T01:48:50;100749.16;;;11.72;67.10
59825;BME280;45703;50.898;6.054;2023-05-20T01:51:15;100741.56;;;11.69;69.83
59825;BME280;45703;50.898;6.054;2023-05-20T01:53:41;100742.44;;;11.63;68.19
59825;BME280;45703;50.898;6.054;2023-05-20T01:56:07;100753.31;;;11.68;67.65
59825;BME280;45703;50.898;6.054;2023-05-20T01:58:33;100746.91;;;11.69;67.91
59825;BME280;45703;50.898;6.054;2023-05-20T02:00:58;100734.84;;;11.60;67.34
59825;BME280;45703;50.898;6.054;2023-05-20T02:03:24;100734.44;;;11.57;67.75
59825;BME280;45703;50.898;6.054;2023-05-20T02:05:49;100741.59;;;11.63;67.29
59825;BME280;45703;50.898;6.054;2023-05-20T02:08:15;100736.69;;;11.60;67.61
59825;BME280;45703;50.898;6.054;2023-05-20T02:10:40;100737.72;;;11.59;69.05
59825;BME280;45703;50.898;6.054;2023-05-20T02:13:06;100747.19;;;11.61;67.70
59825;BME280;45703;50.898;6.054;2023-05-20T02:15:31;100734.47;;;11.50;70.42
59825;BME280;45703;50.898;6.054;2023-05-20T02:17:56;100745.78;;;11.52;68.61
59825;BME280;45703;50.898;6.054;2023-05-20T02:20:22;100756.47;;;11.52;67.78
59825;BME280;45703;50.898;6.054;2023-05-20T02:22:47;100742.09;;;11.47;69.20
59825;BME280;45703;50.898;6.054;2023-05-20T02:25:13;100728.75;;;11.41;69.05
59825;BME280;45703;50.898;6.054;2023-05-20T02:27:38;100741.31;;;11.40;68.84
59825;BME280;45703;50.898;6.054;2023-05-20T02:30:05;100732.28;;;11.35;67.71
59825;BME280;45703;50.898;6.054;2023-05-20T02:32:31;100733.31;;;11.34;68.50
59825;BME280;45703;50.898;6.054;2023-05-20T02:34:57;100747.28;;;11.36;67.94
59825;BME280;45703;50.898;6.054;2023-05-20T02:37:23;100738.63;;;11.40;68.11
59825;BME280;45703;50.898;6.054;2023-05-20T02:39:48;100734.31;;;11.39;67.16
59825;BME280;45703;50.898;6.054;2023-05-20T02:42:14;100742.91;;;11.47;67.28
59825;BME280;45703;50.898;6.054;2023-05-20T02:44:39;100737.38;;;11.43;67.65
59825;BME280;45703;50.898;6.054;2023-05-20T02:47:05;100734.97;;;11.35;68.95
59825;BME280;45703;50.898;6.054;2023-05-20T02:49:31;100739.94;;;11.31;69.55
59825;BME280;45703;50.898;6.054;2023-05-20T02:51:56;100728.81;;;11.28;68.25
59825;BME280;45703;50.898;6.054;2023-05-20T02:54:21;100722.69;;;11.21;67.92
59825;BME280;45703;50.898;6.054;2023-05-20T02:56:47;100730.72;;;11.21;68.43
59825;BME280;45703;50.898;6.054;2023-05-20T02:59:12;100730.31;;;11.17;68.83
59825;BME280;45703;50.898;6.054;2023-05-20T03:01:38;100718.22;;;11.08;68.72
59825;BME280;45703;50.898;6.054;2023-05-20T03:04:04;100725.63;;;11.13;68.81
59825;BME280;45703;50.898;6.054;2023-05-20T03:06:30;100728.50;;;11.11;68.67
59825;BME280;45703;50.898;6.054;2023-05-20T03:08:58;100722.53;;;11.09;68.88
59825;BME280;45703;50.898;6.054;2023-05-20T03:11:23;100717.03;;;11.04;69.50
59825;BME280;45703;50.898;6.054;2023-05-20T03:13:49;100714.56;;;11.03;69.74
59825;BME280;45703;50.898;6.054;2023-05-20T03:16:15;100724.22;;;11.04;69.66
59825;BME280;45703;50.898;6.054;2023-05-20T03:18:40;100723.63;;;11.02;68.91
59825;BME280;45703;50.898;6.054;2023-05-20T03:21:07;100719.09;;;10.96;68.78
59825;BME280;45703;50.898;6.054;2023-05-20T03:23:32;100718.28;;;11.02;68.36
59825;BME280;45703;50.898;6.054;2023-05-20T03:25:57;100723.41;;;10.97;70.20
59825;BME280;45703;50.898;6.054;2023-05-20T03:28:23;100716.66;;;10.88;69.64
59825;BME280;45703;50.898;6.054;2023-05-20T03:30:48;100704.16;;;10.82;70.05
59825;BME280;45703;50.898;6.054;2023-05-20T03:33:14;100709.50;;;10.82;69.93
59825;BME280;45703;50.898;6.054;2023-05-20T03:35:40;100707.25;;;10.79;70.33
59825;BME280;45703;50.898;6.054;2023-05-20T03:38:05;100721.22;;;10.81;70.75
59825;BME280;45703;50.898;6.054;2023-05-20T03:40:30;100716.72;;;10.75;71.01
59825;BME280;45703;50.898;6.054;2023-05-20T03:42:56;100709.34;;;10.70;71.03
59825;BME280;45703;50.898;6.054;2023-05-20T03:45:21;100711.00;;;10.65;70.94
59825;BME280;45703;50.898;6.054;2023-05-20T03:47:47;100712.25;;;10.62;71.64
59825;BME280;45703;50.898;6.054;2023-05-20T03:50:12;100725.41;;;10.64;70.74
59825;BME280;45703;50.898;6.054;2023-05-20T03:52:38;100721.28;;;10.61;71.55
59825;BME280;45703;50.898;6.054;2023-05-20T03:55:05;100718.47;;;10.50;72.34
59825;BME280;45703;50.898;6.054;2023-05-20T03:57:30;100718.66;;;10.55;71.61
59825;BME280;45703;50.898;6.054;2023-05-20T03:59:56;100715.78;;;10.50;71.00
59825;BME280;45703;50.898;6.054;2023-05-20T04:02:22;100717.44;;;10.51;70.94
59825;BME280;45703;50.898;6.054;2023-05-20T04:04:47;100722.13;;;10.55;69.93
59825;BME280;45703;50.898;6.054;2023-05-20T04:07:12;100711.06;;;10.52;70.11
59825;BME280;45703;50.898;6.054;2023-05-20T04:09:38;100710.41;;;10.56;72.08
59825;BME280;45703;50.898;6.054;2023-05-20T04:12:04;100704.25;;;10.56;70.91
59825;BME280;45703;50.898;6.054;2023-05-20T04:14:30;100715.13;;;10.61;70.62
59825;BME280;45703;50.898;6.054;2023-05-20T04:17:00;100711.25;;;10.57;70.87
59825;BME280;45703;50.898;6.054;2023-05-20T04:19:25;100707.53;;;10.58;71.93
59825;BME280;45703;50.898;6.054;2023-05-20T04:21:52;100717.56;;;10.69;70.05
59825;BME280;45703;50.898;6.054;2023-05-20T04:24:18;100708.53;;;10.70;73.26
59825;BME280;45703;50.898;6.054;2023-05-20T04:26:43;100715.50;;;10.71;71.76
59825;BME280;45703;50.898;6.054;2023-05-20T04:29:08;100701.53;;;10.69;70.73
59825;BME280;45703;50.898;6.054;2023-05-20T04:31:36;100716.31;;;10.78;71.58
59825;BME280;45703;50.898;6.054;2023-05-20T04:34:02;100710.53;;;10.81;70.15
59825;BME280;45703;50.898;6.054;2023-05-20T04:36:29;100712.19;;;10.82;71.37
59825;BME280;45703;50.898;6.054;2023-05-20T04:38:55;100713.56;;;10.91;70.87
59825;BME280;45703;50.898;6.054;2023-05-20T04:41:20;100717.09;;;10.91;69.70
59825;BME280;45703;50.898;6.054;2023-05-20T04:43:46;100713.38;;;10.92;70.33
59825;BME280;45703;50.898;6.054;2023-05-20T04:46:12;100713.75;;;10.96;70.74
59825;BME280;45703;50.898;6.054;2023-05-20T04:48:38;100720.13;;;10.95;71.00
59825;BME280;45703;50.898;6.054;2023-05-20T04:51:03;100721.78;;;10.96;70.80
59825;BME280;45703;50.898;6.054;2023-05-20T04:53:29;100717.47;;;10.95;70.95
59825;BME280;45703;50.898;6.054;2023-05-20T04:55:58;100714.19;;;10.93;71.52
59825;BME280;45703;50.898;6.054;2023-05-20T04:58:23;100719.94;;;10.96;71.15
59825;BME280;45703;50.898;6.054;2023-05-20T05:00:49;100719.50;;;11.06;71.41
59825;BME280;45703;50.898;6.054;2023-05-20T05:03:15;100714.56;;;11.03;72.48
59825;BME280;45703;50.898;6.054;2023-05-20T05:05:41;100712.69;;;11.10;71.29
59825;BME280;45703;50.898;6.054;2023-05-20T05:08:08;100712.25;;;11.13;71.54
59825;BME280;45703;50.898;6.054;2023-05-20T05:10:36;100718.81;;;11.17;72.48
59825;BME280;45703;50.898;6.054;2023-05-20T05:13:02;100708.72;;;11.19;71.36
59825;BME280;45703;50.898;6.054;2023-05-20T05:15:27;100709.94;;;11.23;71.22
59825;BME280;45703;50.898;6.054;2023-05-20T05:17:53;100707.00;;;11.31;71.86
59825;BME280;45703;50.898;6.054;2023-05-20T05:20:19;100706.59;;;11.34;72.02
59825;BME280;45703;50.898;6.054;2023-05-20T05:22:45;100697.69;;;11.40;70.80
59825;BME280;45703;50.898;6.054;2023-05-20T05:25:11;100712.03;;;11.51;73.07
59825;BME280;45703;50.898;6.054;2023-05-20T05:27:37;100710.19;;;11.58;70.58
59825;BME280;45703;50.898;6.054;2023-05-20T05:30:04;100700.69;;;11.62;71.51
59825;BME280;45703;50.898;6.054;2023-05-20T05:32:30;100696.47;;;11.73;70.49
59825;BME280;45703;50.898;6.054;2023-05-20T05:34:55;100701.56;;;11.81;70.97
59825;BME280;45703;50.898;6.054;2023-05-20T05:37:21;100697.63;;;11.83;71.28
59825;BME280;45703;50.898;6.054;2023-05-20T05:39:46;100705.19;;;11.93;71.17
59825;BME280;45703;50.898;6.054;2023-05-20T05:42:12;100692.44;;;11.88;72.11
59825;BME280;45703;50.898;6.054;2023-05-20T05:44:37;100689.88;;;12.00;70.46
59825;BME280;45703;50.898;6.054;2023-05-20T05:47:03;100695.56;;;12.10;71.04
59825;BME280;45703;50.898;6.054;2023-05-20T05:49:29;100694.47;;;12.17;70.39
59825;BME280;45703;50.898;6.054;2023-05-20T05:51:55;100680.03;;;12.18;70.28
59825;BME280;45703;50.898;6.054;2023-05-20T05:54:20;100696.50;;;12.40;71.07
59825;BME280;45703;50.898;6.054;2023-05-20T05:56:46;100684.38;;;12.37;70.73
59825;BME280;45703;50.898;6.054;2023-05-20T05:59:11;100694.97;;;12.50;71.71
59825;BME280;45703;50.898;6.054;2023-05-20T06:01:37;100692.88;;;12.52;70.31
59825;BME280;45703;50.898;6.054;2023-05-20T06:04:02;100692.56;;;12.60;70.62
59825;BME280;45703;50.898;6.054;2023-05-20T06:06:28;100692.94;;;12.64;70.97
59825;BME280;45703;50.898;6.054;2023-05-20T06:08:54;100679.09;;;12.67;71.09
59825;BME280;45703;50.898;6.054;2023-05-20T06:11:20;100702.25;;;12.79;71.34
59825;BME280;45703;50.898;6.054;2023-05-20T06:13:45;100690.13;;;12.77;69.77
59825;BME280;45703;50.898;6.054;2023-05-20T06:16:11;100692.03;;;12.88;70.28
59825;BME280;45703;50.898;6.054;2023-05-20T06:18:36;100694.44;;;12.96;70.78
59825;BME280;45703;50.898;6.054;2023-05-20T06:21:02;100693.75;;;13.00;69.95
59825;BME280;45703;50.898;6.054;2023-05-20T06:23:27;100689.75;;;13.09;69.57
59825;BME280;45703;50.898;6.054;2023-05-20T06:25:56;100691.28;;;13.16;69.87
59825;BME280;45703;50.898;6.054;2023-05-20T06:28:22;100693.63;;;13.24;69.11
59825;BME280;45703;50.898;6.054;2023-05-20T06:30:47;100689.81;;;13.32;69.40
59825;BME280;45703;50.898;6.054;2023-05-20T06:33:13;100688.09;;;13.37;68.93
59825;BME280;45703;50.898;6.054;2023-05-20T06:35:38;100684.03;;;13.46;69.78
59825;BME280;45703;50.898;6.054;2023-05-20T06:38:03;100677.97;;;13.51;68.96
59825;BME280;45703;50.898;6.054;2023-05-20T06:40:30;100682.78;;;13.60;69.53
59825;BME280;45703;50.898;6.054;2023-05-20T06:42:55;100681.06;;;13.66;68.31
59825;BME280;45703;50.898;6.054;2023-05-20T06:45:20;100687.50;;;13.76;68.71
59825;BME280;45703;50.898;6.054;2023-05-20T06:47:46;100677.13;;;13.80;68.13
59825;BME280;45703;50.898;6.054;2023-05-20T06:50:13;100665.13;;;13.82;69.80
59825;BME280;45703;50.898;6.054;2023-05-20T06:52:39;100673.75;;;13.96;67.97
59825;BME280;45703;50.898;6.054;2023-05-20T06:55:04;100662.31;;;14.00;69.27
59825;BME280;45703;50.898;6.054;2023-05-20T06:57:30;100659.06;;;14.10;68.66
59825;BME280;45703;50.898;6.054;2023-05-20T06:59:55;100651.59;;;14.12;69.29
59825;BME280;45703;50.898;6.054;2023-05-20T07:02:21;100660.25;;;14.25;68.52
59825;BME280;45703;50.898;6.054;2023-05-20T07:04:47;100656.16;;;14.34;67.44
59825;BME280;45703;50.898;6.054;2023-05-20T07:07:12;100656.28;;;14.39;67.62
59825;BME280;45703;50.898;6.054;2023-05-20T07:09:38;100652.75;;;14.50;67.35
59825;BME280;45703;50.898;6.054;2023-05-20T07:12:03;100655.19;;;14.51;67.61
59825;BME280;45703;50.898;6.054;2023-05-20T07:14:29;100640.69;;;14.52;67.97
59825;BME280;45703;50.898;6.054;2023-05-20T07:16:54;100646.16;;;14.69;67.68
59825;BME280;45703;50.898;6.054;2023-05-20T07:19:20;100652.00;;;14.77;68.42
59825;BME280;45703;50.898;6.054;2023-05-20T07:21:45;100652.44;;;14.86;67.61
59825;BME280;45703;50.898;6.054;2023-05-20T07:24:11;100656.38;;;14.95;66.97
59825;BME280;45703;50.898;6.054;2023-05-20T07:26:36;100647.94;;;15.03;66.48
59825;BME280;45703;50.898;6.054;2023-05-20T07:29:02;100637.25;;;15.08;66.23
59825;BME280;45703;50.898;6.054;2023-05-20T07:31:28;100632.13;;;15.06;66.08
59825;BME280;45703;50.898;6.054;2023-05-20T07:33:54;100639.25;;;15.12;66.32
59825;BME280;45703;50.898;6.054;2023-05-20T07:36:19;100633.13;;;15.17;66.25
59825;BME280;45703;50.898;6.054;2023-05-20T07:38:45;100632.41;;;15.21;66.32
59825;BME280;45703;50.898;6.054;2023-05-20T07:41:10;100640.34;;;15.28;65.56
59825;BME280;45703;50.898;6.054;2023-05-20T07:43:36;100630.28;;;15.35;66.58
59825;BME280;45703;50.898;6.054;2023-05-20T07:46:01;100638.75;;;15.43;66.53
59825;BME280;45703;50.898;6.054;2023-05-20T07:48:27;100624.22;;;15.44;66.25
59825;BME280;45703;50.898;6.054;2023-05-20T07:50:52;100643.34;;;15.59;65.61
59825;BME280;45703;50.898;6.054;2023-05-20T07:53:18;100638.63;;;15.66;65.21
59825;BME280;45703;50.898;6.054;2023-05-20T07:55:44;100619.50;;;15.68;64.82
59825;BME280;45703;50.898;6.054;2023-05-20T07:58:09;100617.72;;;15.73;64.31
59825;BME280;45703;50.898;6.054;2023-05-20T08:00:35;100609.09;;;15.71;64.24
59825;BME280;45703;50.898;6.054;2023-05-20T08:03:03;100605.34;;;15.72;64.29
59825;BME280;45703;50.898;6.054;2023-05-20T08:05:28;100624.00;;;15.79;63.94
59825;BME280;45703;50.898;6.054;2023-05-20T08:07:54;100618.94;;;15.82;64.61
59825;BME280;45703;50.898;6.054;2023-05-20T08:10:19;100621.22;;;15.90;64.49
59825;BME280;45703;50.898;6.054;2023-05-20T08:12:45;100621.28;;;15.95;64.74
59825;BME280;45703;50.898;6.054;2023-05-20T08:15:10;100611.91;;;15.97;64.71
59825;BME280;45703;50.898;6.054;2023-05-20T08:17:36;100619.31;;;16.07;64.19
59825;BME280;45703;50.898;6.054;2023-05-20T08:20:03;100628.63;;;16.16;64.35
59825;BME280;45703;50.898;6.054;2023-05-20T08:22:28;100621.41;;;16.21;63.89
59825;BME280;45703;50.898;6.054;2023-05-20T08:24:54;100609.50;;;16.17;63.96
59825;BME280;45703;50.898;6.054;2023-05-20T08:27:19;100618.56;;;16.28;64.02
59825;BME280;45703;50.898;6.054;2023-05-20T08:29:44;100609.63;;;16.27;63.67
59825;BME280;45703;50.898;6.054;2023-05-20T08:32:10;100611.47;;;16.22;63.51
59825;BME280;45703;50.898;6.054;2023-05-20T08:34:35;100609.19;;;16.14;64.63
59825;BME280;45703;50.898;6.054;2023-05-20T08:37:01;100612.97;;;16.13;64.20
59825;BME280;45703;50.898;6.054;2023-05-20T08:39:27;100614.09;;;16.17;63.66
59825;BME280;45703;50.898;6.054;2023-05-20T08:41:52;100618.97;;;16.20;64.22
59825;BME280;45703;50.898;6.054;2023-05-20T08:44:18;100606.88;;;16.22;63.99
59825;BME280;45703;50.898;6.054;2023-05-20T08:46:46;100613.72;;;16.30;63.63
59825;BME280;45703;50.898;6.054;2023-05-20T08:49:12;100602.94;;;16.30;63.89
59825;BME280;45703;50.898;6.054;2023-05-20T08:51:38;100599.34;;;16.41;63.80
59825;BME280;45703;50.898;6.054;2023-05-20T08:54:03;100605.94;;;16.50;64.76
59825;BME280;45703;50.898;6.054;2023-05-20T08:56:30;100602.22;;;16.56;63.69
59825;BME280;45703;50.898;6.054;2023-05-20T08:58:57;100595.03;;;16.61;63.79
59825;BME280;45703;50.898;6.054;2023-05-20T09:01:23;100594.78;;;16.63;63.31
59825;BME280;45703;50.898;6.054;2023-05-20T09:03:52;100596.78;;;16.72;63.58
59825;BME280;45703;50.898;6.054;2023-05-20T09:06:17;100587.44;;;16.80;63.70
59825;BME280;45703;50.898;6.054;2023-05-20T09:08:49;100595.91;;;16.88;62.88
59825;BME280;45703;50.898;6.054;2023-05-20T09:11:18;100602.66;;;16.91;63.27
59825;BME280;45703;50.898;6.054;2023-05-20T09:13:44;100591.91;;;16.96;63.43
59825;BME280;45703;50.898;6.054;2023-05-20T09:16:09;100593.41;;;17.08;62.98
59825;BME280;45703;50.898;6.054;2023-05-20T09:18:39;100587.84;;;17.20;62.99
59825;BME280;45703;50.898;6.054;2023-05-20T09:21:05;100587.63;;;17.26;63.25
59825;BME280;45703;50.898;6.054;2023-05-20T09:23:31;100584.00;;;17.37;63.19
59825;BME280;45703;50.898;6.054;2023-05-20T09:25:59;100582.75;;;17.49;62.68
59825;BME280;45703;50.898;6.054;2023-05-20T09:28:25;100575.78;;;17.58;62.67
59825;BME280;45703;50.898;6.054;2023-05-20T09:30:58;100585.91;;;17.73;62.23
59825;BME280;45703;50.898;6.054;2023-05-20T09:33:36;100567.34;;;17.81;61.97
59825;BME280;45703;50.898;6.054;2023-05-20T09:36:04;100577.09;;;17.87;61.17
59825;BME280;45703;50.898;6.054;2023-05-20T09:38:33;100573.31;;;17.88;61.96
59825;BME280;45703;50.898;6.054;2023-05-20T09:41:11;100574.91;;;17.84;61.22
59825;BME280;45703;50.898;6.054;2023-05-20T09:43:41;100581.97;;;17.90;61.25
59825;BME280;45703;50.898;6.054;2023-05-20T09:46:07;100580.88;;;17.86;60.83
59825;BME280;45703;50.898;6.054;2023-05-20T09:48:35;100590.03;;;17.85;61.34
59825;BME280;45703;50.898;6.054;2023-05-20T09:51:03;100584.09;;;17.83;61.22
59825;BME280;45703;50.898;6.054;2023-05-20T09:53:29;100574.09;;;17.84;61.24
59825;BME280;45703;50.898;6.054;2023-05-20T09:55:54;100563.59;;;17.87;61.72
59825;BME280;45703;50.898;6.054;2023-05-20T09:58:21;100571.19;;;17.95;61.98
59825;BME280;45703;50.898;6.054;2023-05-20T10:00:47;100574.47;;;18.02;61.23
59825;BME280;45703;50.898;6.054;2023-05-20T10:03:13;100573.72;;;18.07;61.21
59825;BME280;45703;50.898;6.054;2023-05-20T10:05:57;100562.06;;;18.06;61.70
59825;BME280;45703;50.898;6.054;2023-05-20T10:11:07;100572.47;;;18.24;60.71
59825;BME280;45703;50.898;6.054;2023-05-20T10:16:50;100563.59;;;18.34;61.20
59825;BME280;45703;50.898;6.054;2023-05-20T10:19:26;100563.91;;;18.42;62.38
59825;BME280;45703;50.898;6.054;2023-05-20T10:22:11;100554.22;;;18.51;61.28
59825;BME280;45703;50.898;6.054;2023-05-20T10:24:42;100558.84;;;18.56;60.65
59825;BME280;45703;50.898;6.054;2023-05-20T10:27:13;100560.78;;;18.65;60.59
59825;BME280;45703;50.898;6.054;2023-05-20T10:29:52;100563.50;;;18.75;60.70
59825;BME280;45703;50.898;6.054;2023-05-20T10:32:24;100559.97;;;18.85;60.68
59825;BME280;45703;50.898;6.054;2023-05-20T10:34:50;100565.16;;;18.91;60.83
59825;BME280;45703;50.898;6.054;2023-05-20T10:37:26;100554.88;;;18.98;59.76
59825;BME280;45703;50.898;6.054;2023-05-20T10:40:05;100557.59;;;18.98;59.66
59825;BME280;45703;50.898;6.054;2023-05-20T10:42:31;100542.72;;;19.00;59.46
59825;BME280;45703;50.898;6.054;2023-05-20T10:44:56;100549.47;;;19.13;59.89
59825;BME280;45703;50.898;6.054;2023-05-20T10:47:22;100546.84;;;19.23;60.05
59825;BME280;45703;50.898;6.054;2023-05-20T10:49:47;100553.34;;;19.37;59.88
59825;BME280;45703;50.898;6.054;2023-05-20T10:52:13;100552.78;;;19.40;58.96
59825;BME280;45703;50.898;6.054;2023-05-20T10:54:45;100549.81;;;19.36;59.90
59825;BME280;45703;50.898;6.054;2023-05-20T10:57:11;100550.63;;;19.42;59.45
59825;BME280;45703;50.898;6.054;2023-05-20T10:59:43;100539.78;;;19.52;58.59
59825;BME280;45703;50.898;6.054;2023-05-20T11:02:14;100542.22;;;19.63;59.03
59825;BME280;45703;50.898;6.054;2023-05-20T11:04:42;100547.34;;;19.60;57.88
59825;BME280;45703;50.898;6.054;2023-05-20T11:07:07;100544.38;;;19.61;58.65
59825;BME280;45703;50.898;6.054;2023-05-20T11:09:33;100536.53;;;19.65;58.72
59825;BME280;45703;50.898;6.054;2023-05-20T11:11:59;100536.25;;;19.71;58.49
59825;BME280;45703;50.898;6.054;2023-05-20T11:14:27;100525.16;;;19.68;58.61
59825;BME280;45703;50.898;6.054;2023-05-20T11:16:55;100521.34;;;19.64;58.42
59825;BME280;45703;50.898;6.054;2023-05-20T11:19:21;100518.63;;;19.64;58.90
59825;BME280;45703;50.898;6.054;2023-05-20T11:21:47;100517.03;;;19.73;59.70
59825;BME280;45703;50.898;6.054;2023-05-20T11:24:12;100517.78;;;19.83;60.13
59825;BME280;45703;50.898;6.054;2023-05-20T11:26:39;100496.91;;;19.89;58.28
59825;BME280;45703;50.898;6.054;2023-05-20T11:29:04;100506.16;;;19.83;58.86
59825;BME280;45703;50.898;6.054;2023-05-20T11:31:30;100513.44;;;19.87;58.70
59825;BME280;45703;50.898;6.054;2023-05-20T11:33:58;100500.19;;;19.81;58.82
59825;BME280;45703;50.898;6.054;2023-05-20T11:36:26;100509.41;;;19.80;58.66
59825;BME280;45703;50.898;6.054;2023-05-20T11:38:53;100492.59;;;19.83;58.66
59825;BME280;45703;50.898;6.054;2023-05-20T11:41:25;100487.97;;;19.83;59.40
59825;BME280;45703;50.898;6.054;2023-05-20T11:43:58;100505.00;;;19.99;59.14
59825;BME280;45703;50.898;6.054;2023-05-20T11:46:24;100493.94;;;20.05;58.65
59825;BME280;45703;50.898;6.054;2023-05-20T11:48:53;100487.09;;;20.13;58.77
59825;BME280;45703;50.898;6.054;2023-05-20T11:51:26;100502.25;;;20.29;58.67
59825;BME280;45703;50.898;6.054;2023-05-20T11:53:58;100497.91;;;20.28;56.43
59825;BME280;45703;50.898;6.054;2023-05-20T11:56:23;100481.34;;;20.29;57.69
59825;BME280;45703;50.898;6.054;2023-05-20T11:58:49;100494.06;;;20.34;57.61
59825;BME280;45703;50.898;6.054;2023-05-20T12:01:14;100478.91;;;20.28;57.58
59825;BME280;45703;50.898;6.054;2023-05-20T12:03:39;100475.38;;;20.27;58.43
59825;BME280;45703;50.898;6.054;2023-05-20T12:06:05;100477.28;;;20.32;59.04
59825;BME280;45703;50.898;6.054;2023-05-20T12:08:30;100479.94;;;20.42;57.91
59825;BME280;45703;50.898;6.054;2023-05-20T12:10:56;100472.31;;;20.43;57.42
59825;BME280;45703;50.898;6.054;2023-05-20T12:13:21;100471.72;;;20.51;57.48
59825;BME280;45703;50.898;6.054;2023-05-20T12:15:48;100459.22;;;20.55;57.73
59825;BME280;45703;50.898;6.054;2023-05-20T12:18:13;100483.31;;;20.67;57.79
59825;BME280;45703;50.898;6.054;2023-05-20T12:20:38;100478.09;;;20.75;57.38
59825;BME280;45703;50.898;6.054;2023-05-20T12:23:04;100472.16;;;20.73;57.52
59825;BME280;45703;50.898;6.054;2023-05-20T12:25:29;100472.34;;;20.87;57.69
59825;BME280;45703;50.898;6.054;2023-05-20T12:27:55;100462.31;;;20.87;57.69
59825;BME280;45703;50.898;6.054;2023-05-20T12:30:22;100472.50;;;21.00;57.80
59825;BME280;45703;50.898;6.054;2023-05-20T12:32:48;100474.03;;;21.11;57.84
59825;BME280;45703;50.898;6.054;2023-05-20T12:35:15;100471.41;;;21.01;56.10
59825;BME280;45703;50.898;6.054;2023-05-20T12:37:41;100477.19;;;20.90;56.15
59825;BME280;45703;50.898;6.054;2023-05-20T12:40:09;100465.41;;;20.66;56.02
59825;BME280;45703;50.898;6.054;2023-05-20T12:42:38;100470.94;;;20.51;57.20
59825;BME280;45703;50.898;6.054;2023-05-20T12:45:04;100464.16;;;20.48;57.78
59825;BME280;45703;50.898;6.054;2023-05-20T12:47:31;100458.19;;;20.46;57.63
59825;BME280;45703;50.898;6.054;2023-05-20T12:49:57;100466.78;;;20.58;57.66
59825;BME280;45703;50.898;6.054;2023-05-20T12:52:22;100466.47;;;20.70;57.48